Map

Track Data

SID SEASON NUMBER BASIN SUBBASIN NAME ISO_TIME NATURE LAT LON WMO_WIND WMO_PRES WMO_AGENCY TRACK_TYPE DIST2LAND LANDFALL IFLAG USA_AGENCY USA_ATCF_ID USA_LAT USA_LON USA_RECORD USA_STATUS USA_WIND USA_PRES USA_SSHS USA_R34_NE USA_R34_SE USA_R34_SW USA_R34_NW USA_R50_NE USA_R50_SE USA_R50_SW USA_R50_NW USA_R64_NE USA_R64_SE USA_R64_SW USA_R64_NW USA_POCI USA_ROCI USA_RMW USA_EYE TOKYO_LAT TOKYO_LON TOKYO_GRADE TOKYO_WIND TOKYO_PRES TOKYO_R50_DIR TOKYO_R50_LONG TOKYO_R50_SHORT TOKYO_R30_DIR TOKYO_R30_LONG TOKYO_R30_SHORT TOKYO_LAND CMA_LAT CMA_LON CMA_CAT CMA_WIND CMA_PRES HKO_LAT HKO_LON HKO_CAT HKO_WIND HKO_PRES NEWDELHI_LAT NEWDELHI_LON NEWDELHI_GRADE NEWDELHI_WIND NEWDELHI_PRES NEWDELHI_CI NEWDELHI_DP NEWDELHI_POCI REUNION_LAT REUNION_LON REUNION_TYPE REUNION_WIND REUNION_PRES REUNION_TNUM REUNION_CI REUNION_RMW REUNION_R34_NE REUNION_R34_SE REUNION_R34_SW REUNION_R34_NW REUNION_R50_NE REUNION_R50_SE REUNION_R50_SW REUNION_R50_NW REUNION_R64_NE REUNION_R64_SE REUNION_R64_SW REUNION_R64_NW BOM_LAT BOM_LON BOM_TYPE BOM_WIND BOM_PRES BOM_TNUM BOM_CI BOM_RMW BOM_R34_NE BOM_R34_SE BOM_R34_SW BOM_R34_NW BOM_R50_NE BOM_R50_SE BOM_R50_SW BOM_R50_NW BOM_R64_NE BOM_R64_SE BOM_R64_SW BOM_R64_NW BOM_ROCI BOM_POCI BOM_EYE BOM_POS_METHOD BOM_PRES_METHOD NADI_LAT NADI_LON NADI_CAT NADI_WIND NADI_PRES WELLINGTON_LAT WELLINGTON_LON WELLINGTON_WIND WELLINGTON_PRES DS824_LAT DS824_LON DS824_STAGE DS824_WIND DS824_PRES TD9636_LAT TD9636_LON TD9636_STAGE TD9636_WIND TD9636_PRES TD9635_LAT TD9635_LON TD9635_WIND TD9635_PRES TD9635_ROCI NEUMANN_LAT NEUMANN_LON NEUMANN_CLASS NEUMANN_WIND NEUMANN_PRES MLC_LAT MLC_LON MLC_CLASS MLC_WIND MLC_PRES USA_GUST BOM_GUST BOM_GUST_PER REUNION_GUST REUNION_GUST_PER USA_SEAHGT USA_SEARAD_NE USA_SEARAD_SE USA_SEARAD_SW USA_SEARAD_NW STORM_SPEED STORM_DIR
1970330N35300 1970 154 NA NA NOT_NAMED 1970-11-26 00:00:00 ET 35.0000 -60.0000 60 hurdat_atl main 1049 1036 O_____________ hurdat_atl AL231970 35.0000 -60.0000 EX 60 -4 6 40
1970330N35300 1970 154 NA NA NOT_NAMED 1970-11-26 03:00:00 ET 35.2375 -59.7576 main 1036 1018 P_____________ AL231970 35.2375 -59.7576 EX 60 -4 6 39
1970330N35300 1970 154 NA NA NOT_NAMED 1970-11-26 06:00:00 ET 35.5000 -59.5000 60 hurdat_atl main 1018 997 O_____________ hurdat_atl AL231970 35.5000 -59.5000 EX 60 -4 7 37
1970330N35300 1970 154 NA NA NOT_NAMED 1970-11-26 09:00:00 ET 35.8001 -59.2277 main 1002 982 P_____________ AL231970 35.8001 -59.2277 EX 60 -4 7 34
1970330N35300 1970 154 NA NA NOT_NAMED 1970-11-26 12:00:00 ET 36.1000 -59.0000 60 hurdat_atl main 982 958 O_____________ hurdat_atl AL231970 36.1000 -59.0000 EX 60 -4 7 28
1970330N35300 1970 154 NA NA NOT_NAMED 1970-11-26 15:00:00 ET 36.3799 -58.8399 main 963 944 P_____________ AL231970 36.3799 -58.8399 EX 60 -4 5 18
1970330N35300 1970 154 NA NA NOT_NAMED 1970-11-26 18:00:00 ET 36.6000 -58.8000 60 hurdat_atl main 944 921 O_____________ hurdat_atl AL231970 36.6000 -58.8000 EX 60 -4 4 353
1970330N35300 1970 154 NA NA NOT_NAMED 1970-11-26 21:00:00 ET 36.7749 -58.8894 main 921 911 P_____________ AL231970 36.7749 -58.8894 EX 60 -4 3 310
1970330N35300 1970 154 NA NA NOT_NAMED 1970-11-27 00:00:00 ET 36.8000 -59.1000 60 hurdat_atl main 911 906 O_____________ hurdat_atl AL231970 36.8000 -59.1000 EX 60 -4 4 251
1970330N35300 1970 154 NA NA NOT_NAMED 1970-11-27 03:00:00 ET 36.6400 -59.3775 main 916 911 P_____________ AL231970 36.6400 -59.3775 EX 60 -4 7 224
1970330N35300 1970 154 NA NA NOT_NAMED 1970-11-27 06:00:00 ET 36.3000 -59.7000 60 hurdat_atl main 931 931 O_____________ hurdat_atl AL231970 36.3000 -59.7000 EX 60 -4 9 215
1970330N35300 1970 154 NA NA NOT_NAMED 1970-11-27 09:00:00 ET 35.8751 -60.0304 main 958 958 P_____________ AL231970 35.8751 -60.0304 EX 60 -4 11 206
1970330N35300 1970 154 NA NA NOT_NAMED 1970-11-27 12:00:00 ET 35.3000 -60.3000 60 hurdat_atl main 1007 1007 O_____________ hurdat_atl AL231970 35.3000 -60.3000 EX 60 -4 13 195
1970330N35300 1970 154 NA NA NOT_NAMED 1970-11-27 15:00:00 ET 34.6024 -60.4447 main 1076 1073 P_____________ AL231970 34.6024 -60.4447 EX 60 -4 15 186
1970330N35300 1970 154 NA NA NOT_NAMED 1970-11-27 18:00:00 ET 33.8000 -60.5000 60 hurdat_atl main 1156 1156 O_____________ hurdat_atl AL231970 33.8000 -60.5000 EX 60 -4 17 182
1970330N35300 1970 154 NA NA NOT_NAMED 1970-11-27 21:00:00 ET 32.9575 -60.5223 main 1241 1241 P_____________ AL231970 32.9575 -60.5223 EX 57 -4 17 0
1970330N35300 1970 154 NA NA NOT_NAMED 1970-11-28 00:00:00 SS 32.1000 -60.5000 55 hurdat_atl main 1336 1336 O_____________ hurdat_atl AL231970 32.1000 -60.5000 SS 55 -2 17 178
1970330N35300 1970 154 NA NA NOT_NAMED 1970-11-28 03:00:00 SS 31.2775 -60.4650 main 1422 1422 P_____________ AL231970 31.2775 -60.4650 SS 55 -2 16 177
1970330N35300 1970 154 NA NA NOT_NAMED 1970-11-28 06:00:00 SS 30.5000 -60.4000 55 hurdat_atl main 1450 1382 O_____________ hurdat_atl AL231970 30.5000 -60.4000 SS 55 -2 15 176
1970330N35300 1970 154 NA NA NOT_NAMED 1970-11-28 09:00:00 SS 29.7400 -60.3302 main 1371 1315 P_____________ AL231970 29.7400 -60.3302 SS 52 -2 14 173
1970330N35300 1970 154 NA NA NOT_NAMED 1970-11-28 12:00:00 SS 29.1000 -60.2000 50 hurdat_atl main 1315 1274 O_____________ hurdat_atl AL231970 29.1000 -60.2000 SS 50 -2 12 166
1970330N35300 1970 154 NA NA NOT_NAMED 1970-11-28 15:00:00 SS 28.6174 -60.0025 main 1274 1254 P_____________ AL231970 28.6173 -60.0025 SS 50 -2 9 151
1970330N35300 1970 154 NA NA NOT_NAMED 1970-11-28 18:00:00 SS 28.3000 -59.7000 50 hurdat_atl main 1259 1249 O_____________ hurdat_atl AL231970 28.3000 -59.7000 SS 50 -2 8 132
1970330N35300 1970 154 NA NA NOT_NAMED 1970-11-28 21:00:00 SS 28.0746 -59.3248 main 1260 1255 P_____________ AL231970 28.0745 -59.3248 SS 50 -2 8 111
1970330N35300 1970 154 NA NA NOT_NAMED 1970-11-29 00:00:00 SS 28.0000 -58.8000 50 hurdat_atl main 1277 1277 O_____________ hurdat_atl AL231970 28.0000 -58.8000 SS 50 -2 11 94
1970330N35300 1970 154 NA NA NOT_NAMED 1970-11-29 03:00:00 SS 28.0025 -58.1090 main 1317 1317 P_____________ AL231970 28.0025 -58.1090 SS 50 -2 13 81
1970330N35300 1970 154 NA NA NOT_NAMED 1970-11-29 06:00:00 SS 28.2000 -57.3000 50 hurdat_atl main 1383 1383 O_____________ hurdat_atl AL231970 28.2000 -57.3000 SS 50 -2 16 68
1970330N35300 1970 154 NA NA NOT_NAMED 1970-11-29 09:00:00 SS 28.6103 -56.4355 main 1474 1474 P_____________ AL231970 28.6103 -56.4355 SS 50 -2 18 56
1970330N35300 1970 154 NA NA NOT_NAMED 1970-11-29 12:00:00 SS 29.2000 -55.6000 50 hurdat_atl main 1576 1576 O_____________ hurdat_atl AL231970 29.2000 -55.6000 SS 50 -2 19 47
1970330N35300 1970 154 NA NA NOT_NAMED 1970-11-29 15:00:00 SS 29.8772 -54.8753 main 1679 1679 P_____________ AL231970 29.8772 -54.8753 SS 50 -2 18 39
1970330N35300 1970 154 NA NA NOT_NAMED 1970-11-29 18:00:00 SS 30.6000 -54.3000 50 987 hurdat_atl main 1729 1675 O_____________ hurdat_atl AL231970 30.6000 -54.3000 SS 50 987 -2 16 31
1970330N35300 1970 154 NA NA NOT_NAMED 1970-11-29 21:00:00 SS 31.2645 -53.8962 main 1668 1615 P_____________ AL231970 31.2645 -53.8962 SS 47 -2 14 25
1970330N35300 1970 154 NA NA NOT_NAMED 1970-11-30 00:00:00 SS 31.9000 -53.6000 45 hurdat_atl main 1615 1560 O_____________ hurdat_atl AL231970 31.9000 -53.6000 SS 45 -2 14 21
1970330N35300 1970 154 NA NA NOT_NAMED 1970-11-30 03:00:00 SS 32.5221 -53.3215 main 1564 1502 P_____________ AL231970 32.5221 -53.3215 SS 45 -2 13 23
1970330N35300 1970 154 NA NA NOT_NAMED 1970-11-30 06:00:00 SS 33.1000 -53.0000 45 hurdat_atl main 1502 1447 O_____________ hurdat_atl AL231970 33.1000 -53.0000 SS 45 -2 12 29
1970330N35300 1970 154 NA NA NOT_NAMED 1970-11-30 09:00:00 SS 33.6139 -52.6034 main 1447 1394 P_____________ AL231970 33.6139 -52.6034 SS 45 -2 13 40
1970330N35300 1970 154 NA NA NOT_NAMED 1970-11-30 12:00:00 TS 34.1000 -52.0000 45 hurdat_atl main 1394 1345 O_____________ hurdat_atl AL231970 34.1000 -52.0000 TS 45 0 16 52
1970330N35300 1970 154 NA NA NOT_NAMED 1970-11-30 15:00:00 TS 34.6086 -51.0606 main 1346 1305 P_____________ AL231970 34.6086 -51.0606 TS 47 0 19 59
1970330N35300 1970 154 NA NA NOT_NAMED 1970-11-30 18:00:00 TS 35.1000 -50.0000 50 hurdat_atl main 1307 1278 O_____________ hurdat_atl AL231970 35.1000 -50.0000 TS 50 0 19 60
1970330N35300 1970 154 NA NA NOT_NAMED 1970-11-30 21:00:00 TS 35.5343 -49.0681 main 1281 1249 P_____________ AL231970 35.5343 -49.0681 TS 50 0 17 58
1970330N35300 1970 154 NA NA NOT_NAMED 1970-12-01 00:00:00 TS 36.0000 -48.2000 50 hurdat_atl main 1249 1218 O_____________ hurdat_atl AL231970 36.0000 -48.2000 TS 50 0 17 54
1970330N35300 1970 154 NA NA NOT_NAMED 1970-12-01 03:00:00 TS 36.5242 -47.3825 main 1221 1177 P_____________ AL231970 36.5242 -47.3825 TS 52 0 18 47
1970330N35300 1970 154 NA NA NOT_NAMED 1970-12-01 06:00:00 TS 37.2000 -46.6000 55 hurdat_atl main 1177 1127 O_____________ hurdat_atl AL231970 37.2000 -46.6000 TS 55 0 20 38
1970330N35300 1970 154 NA NA NOT_NAMED 1970-12-01 09:00:00 TS 38.0964 -45.8283 main 1121 1070 P_____________ AL231970 38.0964 -45.8283 TS 55 0 23 34
1970330N35300 1970 154 NA NA NOT_NAMED 1970-12-01 12:00:00 TS 39.1000 -45.0000 55 hurdat_atl main 1066 1030 O_____________ hurdat_atl AL231970 39.1000 -45.0000 TS 55 0 23 35
1970330N35300 1970 154 NA NA NOT_NAMED 1970-12-01 15:00:00 TS 40.0103 -44.0977 main 1036 1020 P_____________ AL231970 40.0103 -44.0977 TS 55 0 24 39
1970330N35300 1970 154 NA NA NOT_NAMED 1970-12-01 18:00:00 ET 41.0000 -43.0000 55 hurdat_atl main 1024 1020 O_____________ hurdat_atl AL231970 41.0000 -43.0000 EX 55 -4 29 42
1970330N35300 1970 154 NA NA NOT_NAMED 1970-12-01 21:00:00 ET 42.1410 -41.5734 main 1040 1040 P_____________ AL231970 42.1410 -41.5734 EX 55 -4 33 43
1970330N35300 1970 154 NA NA NOT_NAMED 1970-12-02 00:00:00 ET 43.4000 -40.0000 55 hurdat_atl main 1078 1078 O_____________ hurdat_atl AL231970 43.4000 -40.0000 EX 55 -4 34 41
1970330N35300 1970 154 NA NA NOT_NAMED 1970-12-02 03:00:00 ET 44.7107 -38.4935 main 1124 1124 P_____________ AL231970 44.7107 -38.4935 EX 55 -4 34 38
1970330N35300 1970 154 NA NA NOT_NAMED 1970-12-02 06:00:00 ET 46.1000 -37.0000 55 hurdat_atl main 1190 1190 O_____________ hurdat_atl AL231970 46.1000 -37.0000 EX 55 -4 35 37
1970330N35300 1970 154 NA NA NOT_NAMED 1970-12-02 09:00:00 ET 47.4891 -35.4687 main 1276 1276 P_____________ AL231970 47.4891 -35.4687 EX 55 -4 35 35
1970330N35300 1970 154 NA NA NOT_NAMED 1970-12-02 12:00:00 ET 49.0000 -34.0000 55 hurdat_atl main 1358 1239 O_____________ hurdat_atl AL231970 49.0000 -34.0000 EX 55 -4 37 31
1970330N35300 1970 154 NA NA NOT_NAMED 1970-12-02 15:00:00 ET 50.7054 -32.5265 main 1232 1112 P_____________ AL231970 50.7054 -32.5265 EX 55 -4 39 26
1970330N35300 1970 154 NA NA NOT_NAMED 1970-12-02 18:00:00 ET 52.5000 -31.3000 55 hurdat_atl main 1106 995 O_____________ hurdat_atl AL231970 52.5000 -31.3000 EX 55 -4 38 19
1970330N35300 1970 154 NA NA NOT_NAMED 1970-12-02 21:00:00 ET 54.3224 -30.4766 main 987 894 P_____________ AL231970 54.3224 -30.4766 EX 57 -4 36 12
1970330N35300 1970 154 NA NA NOT_NAMED 1970-12-03 00:00:00 ET 56.0000 -30.0000 60 hurdat_atl main 888 812 O_____________ hurdat_atl AL231970 56.0000 -30.0000 EX 60 -4 31 8
1970330N35300 1970 154 NA NA NOT_NAMED 1970-12-03 03:00:00 ET 57.3989 -29.6807 main 802 698 P_____________ AL231970 57.3989 -29.6807 EX 60 -4 25 6
1970330N35300 1970 154 NA NA NOT_NAMED 1970-12-03 06:00:00 ET 58.5000 -29.5000 60 hurdat_atl main 688 606 O_____________ hurdat_atl AL231970 58.5000 -29.5000 EX 60 -4 20 6
1970330N35300 1970 154 NA NA NOT_NAMED 1970-12-03 09:00:00 ET 59.3622 -29.2624 main 596 532 P_____________ AL231970 59.3622 -29.2624 EX 60 -4 15 10
1970330N35300 1970 154 NA NA NOT_NAMED 1970-12-03 12:00:00 ET 60.0000 -29.0000 60 hurdat_atl main 532 478 O_____________ hurdat_atl AL231970 60.0000 -29.0000 EX 60 -4 12 13
1970330N35300 1970 154 NA NA NOT_NAMED 1970-12-03 15:00:00 ET 60.5670 -28.7082 main 469 421 P_____________ AL231970 60.5670 -28.7082 EX 60 -4 11 19
1970330N35300 1970 154 NA NA NOT_NAMED 1970-12-03 18:00:00 ET 61.0000 -28.3000 60 hurdat_atl main 421 379 O_____________ hurdat_atl AL231970 61.0000 -28.3000 EX 60 -4 9 30
1970330N35300 1970 154 NA NA NOT_NAMED 1970-12-03 21:00:00 ET 61.3510 -27.7836 main 370 329 P_____________ AL231970 61.3510 -27.7836 EX 60 -4 9 46
1970330N35300 1970 154 NA NA NOT_NAMED 1970-12-04 00:00:00 ET 61.6000 -27.0000 60 hurdat_atl main 326 279 O_____________ hurdat_atl AL231970 61.6000 -27.0000 EX 60 -4 10 63
1970330N35300 1970 154 NA NA NOT_NAMED 1970-12-04 03:00:00 ET 61.7831 -25.9884 main 276 230 P_____________ AL231970 61.7831 -25.9884 EX 60 -4 12 76
1970330N35300 1970 154 NA NA NOT_NAMED 1970-12-04 06:00:00 ET 61.9000 -24.5000 60 hurdat_atl main 228 199 O_____________ hurdat_atl AL231970 61.9000 -24.5000 EX 60 -4 17 84
1970330N35300 1970 154 NA NA NOT_NAMED 1970-12-04 09:00:00 ET 61.9581 -22.4322 main 199 165 P_____________ AL231970 61.9581 -22.4322 EX 60 -4 21 87
1970330N35300 1970 154 NA NA NOT_NAMED 1970-12-04 12:00:00 ET 62.0000 -20.0000 60 hurdat_atl main 165 152 O_____________ hurdat_atl AL231970 62.0000 -20.0000 EX 60 -4 23 87
1970330N35300 1970 154 NA NA NOT_NAMED 1970-12-04 15:00:00 ET 62.0582 -17.5665 main 154 154 P_____________ AL231970 62.0582 -17.5665 EX 60 -4 23 85
1970330N35300 1970 154 NA NA NOT_NAMED 1970-12-04 18:00:00 ET 62.2000 -15.0000 60 hurdat_atl main 198 198 O_____________ hurdat_atl AL231970 62.2000 -15.0000 EX 60 -4 25 81
1970330N35300 1970 154 NA NA NOT_NAMED 1970-12-04 21:00:00 ET 62.4596 -12.2884 main 230 230 P_____________ AL231970 62.4596 -12.2884 EX 60 -4 26 77
1970330N35300 1970 154 NA NA NOT_NAMED 1970-12-05 00:00:00 ET 62.8000 -9.50000 60 hurdat_atl main 302 302 O_____________ hurdat_atl AL231970 62.8000 -9.50000 EX 60 -4 26 76
1970330N35300 1970 154 NA NA NOT_NAMED 1970-12-05 03:00:00 ET 63.1150 -6.73920 main 392 392 P_____________ AL231970 63.1150 -6.73920 EX 60 -4 26 74
1970330N35300 1970 154 NA NA NOT_NAMED 1970-12-05 06:00:00 ET 63.5000 -4.00000 60 hurdat_atl main 484 377 O_____________ hurdat_atl AL231970 63.5000 -4.00000 EX 60 -4 26 71
1970330N35300 1970 154 NA NA NOT_NAMED 1970-12-05 09:00:00 ET 63.9780 -1.14149 main 374 319 P_____________ AL231970 63.9780 -1.14149 EX 60 -4 26 67
1970330N35300 1970 154 NA NA NOT_NAMED 1970-12-05 12:00:00 ET 64.5000 1.50000 60 hurdat_atl main 319 278 O_____________ hurdat_atl AL231970 64.5000 1.50000 EX 60 -4 23 64
1970330N35300 1970 154 NA NA NOT_NAMED 1970-12-05 15:00:00 ET 65.0030 3.72978 main 281 267 P_____________ AL231970 65.0030 3.72978 EX 60 -4 20 59
1970330N35300 1970 154 NA NA NOT_NAMED 1970-12-05 18:00:00 ET 65.5000 5.50000 60 hurdat_atl main 265 240 O_____________ hurdat_atl AL231970 65.5000 5.50000 EX 60 -4 16 54
1970330N35300 1970 154 NA NA NOT_NAMED 1970-12-05 21:00:00 ET 65.9537 6.90939 main 241 215 P_____________ AL231970 65.9537 6.90939 EX 57 -4 14 49
1970330N35300 1970 154 NA NA NOT_NAMED 1970-12-06 00:00:00 ET 66.4000 8.00000 55 hurdat_atl main 211 182 O_____________ hurdat_atl AL231970 66.4000 8.00000 EX 55 -4 12 43
1970330N35300 1970 154 NA NA NOT_NAMED 1970-12-06 03:00:00 ET 66.8498 9.00307 main 178 158 P_____________ AL231970 66.8498 9.00307 EX 52 -4 12 41
1970330N35300 1970 154 NA NA NOT_NAMED 1970-12-06 06:00:00 ET 67.3000 10.0000 50 hurdat_atl main 157 O_____________ hurdat_atl AL231970 67.3000 10.0000 EX 50 -4 12 41

About IBTrACS Database

This database is a web-friendly format of International Best Track Archive for Climate Stewardship (IBTrACS), a global best track data archive curated by NOAA dating back to 1842.

Updated: 2022-11-16